sensor_id;sensor_type;location;lat;lon;timestamp;pressure;altitude;pressure_sealevel;temperature;humidity
81628;BME280;71036;51.102;6.514;2023-09-19T00:01:12;100247.78;;;15.21;87.05
81628;BME280;71036;51.102;6.514;2023-09-19T00:03:37;100253.06;;;15.23;87.43
81628;BME280;71036;51.102;6.514;2023-09-19T00:06:04;100252.50;;;15.19;87.38
81628;BME280;71036;51.102;6.514;2023-09-19T00:08:30;100255.59;;;15.24;87.21
81628;BME280;71036;51.102;6.514;2023-09-19T00:10:56;100251.41;;;15.30;86.93
81628;BME280;71036;51.102;6.514;2023-09-19T00:13:21;100260.25;;;15.32;86.41
81628;BME280;71036;51.102;6.514;2023-09-19T00:15:47;100251.25;;;15.31;86.93
81628;BME280;71036;51.102;6.514;2023-09-19T00:18:17;100251.34;;;15.22;87.26
81628;BME280;71036;51.102;6.514;2023-09-19T00:20:44;100248.00;;;15.28;86.78
81628;BME280;71036;51.102;6.514;2023-09-19T00:23:13;100254.28;;;15.28;86.61
81628;BME280;71036;51.102;6.514;2023-09-19T00:25:38;100263.94;;;15.31;86.26
81628;BME280;71036;51.102;6.514;2023-09-19T00:28:07;100261.88;;;15.25;86.50
81628;BME280;71036;51.102;6.514;2023-09-19T00:30:33;100269.22;;;15.32;85.98
81628;BME280;71036;51.102;6.514;2023-09-19T00:32:58;100264.16;;;15.37;85.81
81628;BME280;71036;51.102;6.514;2023-09-19T00:35:24;100272.44;;;15.36;85.75
81628;BME280;71036;51.102;6.514;2023-09-19T00:37:50;100263.94;;;15.31;85.66
81628;BME280;71036;51.102;6.514;2023-09-19T00:40:15;100263.63;;;15.34;85.66
81628;BME280;71036;51.102;6.514;2023-09-19T00:42:43;100267.25;;;15.42;84.79
81628;BME280;71036;51.102;6.514;2023-09-19T00:45:09;100263.00;;;15.40;85.34
81628;BME280;71036;51.102;6.514;2023-09-19T00:47:39;100260.59;;;15.37;84.99
81628;BME280;71036;51.102;6.514;2023-09-19T00:50:06;100267.25;;;15.42;85.57
81628;BME280;71036;51.102;6.514;2023-09-19T00:52:34;100271.28;;;15.38;85.57
81628;BME280;71036;51.102;6.514;2023-09-19T00:55:02;100279.78;;;15.43;85.30
81628;BME280;71036;51.102;6.514;2023-09-19T00:57:28;100276.91;;;15.45;84.56
81628;BME280;71036;51.102;6.514;2023-09-19T00:59:54;100284.50;;;15.41;85.20
81628;BME280;71036;51.102;6.514;2023-09-19T01:02:21;100279.41;;;15.38;85.39
81628;BME280;71036;51.102;6.514;2023-09-19T01:04:46;100281.91;;;15.32;85.78
81628;BME280;71036;51.102;6.514;2023-09-19T01:07:11;100283.41;;;15.26;85.84
81628;BME280;71036;51.102;6.514;2023-09-19T01:09:36;100282.16;;;15.21;86.16
81628;BME280;71036;51.102;6.514;2023-09-19T01:12:05;100286.03;;;15.18;86.27
81628;BME280;71036;51.102;6.514;2023-09-19T01:14:42;100299.06;;;15.14;87.02
81628;BME280;71036;51.102;6.514;2023-09-19T01:17:12;100302.22;;;15.10;87.19
81628;BME280;71036;51.102;6.514;2023-09-19T01:22:42;100295.50;;;15.14;87.05
81628;BME280;71036;51.102;6.514;2023-09-19T01:28:43;100306.22;;;15.06;87.61
81628;BME280;71036;51.102;6.514;2023-09-19T01:31:12;100313.22;;;15.08;86.55
81628;BME280;71036;51.102;6.514;2023-09-19T01:33:59;100311.94;;;15.21;85.76
81628;BME280;71036;51.102;6.514;2023-09-19T01:36:29;100321.97;;;15.20;86.12
81628;BME280;71036;51.102;6.514;2023-09-19T01:38:57;100323.56;;;15.13;85.92
81628;BME280;71036;51.102;6.514;2023-09-19T01:41:55;100319.88;;;15.14;85.33
81628;BME280;71036;51.102;6.514;2023-09-19T01:44:41;100327.13;;;15.13;85.48
81628;BME280;71036;51.102;6.514;2023-09-19T01:47:19;100331.69;;;15.13;85.46
81628;BME280;71036;51.102;6.514;2023-09-19T01:50:00;100340.00;;;15.11;85.24
81628;BME280;71036;51.102;6.514;2023-09-19T01:52:30;100334.88;;;15.08;85.18
81628;BME280;71036;51.102;6.514;2023-09-19T01:55:05;100329.47;;;15.08;85.34
81628;BME280;71036;51.102;6.514;2023-09-19T02:00:32;100337.34;;;15.02;85.70
81628;BME280;71036;51.102;6.514;2023-09-19T02:02:59;100340.75;;;15.04;85.59
81628;BME280;71036;51.102;6.514;2023-09-19T02:05:25;100339.69;;;14.97;85.49
81628;BME280;71036;51.102;6.514;2023-09-19T02:07:51;100337.97;;;14.96;85.19
81628;BME280;71036;51.102;6.514;2023-09-19T02:10:18;100336.56;;;14.92;86.00
81628;BME280;71036;51.102;6.514;2023-09-19T02:12:43;100336.88;;;14.89;85.54
81628;BME280;71036;51.102;6.514;2023-09-19T02:15:09;100349.41;;;14.90;85.46
81628;BME280;71036;51.102;6.514;2023-09-19T02:17:34;100348.88;;;14.86;85.49
81628;BME280;71036;51.102;6.514;2023-09-19T02:19:59;100340.06;;;14.84;85.37
81628;BME280;71036;51.102;6.514;2023-09-19T02:22:25;100353.91;;;14.81;85.43
81628;BME280;71036;51.102;6.514;2023-09-19T02:24:51;100356.06;;;14.78;85.13
81628;BME280;71036;51.102;6.514;2023-09-19T02:27:17;100349.47;;;14.80;84.35
81628;BME280;71036;51.102;6.514;2023-09-19T02:29:43;100353.66;;;14.75;84.68
81628;BME280;71036;51.102;6.514;2023-09-19T02:32:08;100355.41;;;14.66;84.92
81628;BME280;71036;51.102;6.514;2023-09-19T02:34:37;100364.69;;;14.64;83.96
81628;BME280;71036;51.102;6.514;2023-09-19T02:37:04;100366.00;;;14.59;84.40
81628;BME280;71036;51.102;6.514;2023-09-19T02:39:33;100360.88;;;14.56;83.83
81628;BME280;71036;51.102;6.514;2023-09-19T02:41:59;100352.06;;;14.54;83.94
81628;BME280;71036;51.102;6.514;2023-09-19T02:44:24;100359.59;;;14.61;83.70
81628;BME280;71036;51.102;6.514;2023-09-19T02:46:50;100355.47;;;14.56;83.05
81628;BME280;71036;51.102;6.514;2023-09-19T02:49:15;100365.44;;;14.56;83.44
81628;BME280;71036;51.102;6.514;2023-09-19T02:51:42;100354.19;;;14.61;82.94
81628;BME280;71036;51.102;6.514;2023-09-19T02:54:08;100358.72;;;14.60;82.83
81628;BME280;71036;51.102;6.514;2023-09-19T02:56:33;100358.47;;;14.53;82.72
81628;BME280;71036;51.102;6.514;2023-09-19T02:59:00;100362.50;;;14.49;82.93
81628;BME280;71036;51.102;6.514;2023-09-19T03:01:26;100366.81;;;14.42;83.56
81628;BME280;71036;51.102;6.514;2023-09-19T03:03:53;100378.03;;;14.47;82.37
81628;BME280;71036;51.102;6.514;2023-09-19T03:06:19;100366.50;;;14.45;82.64
81628;BME280;71036;51.102;6.514;2023-09-19T03:08:45;100372.78;;;14.46;82.74
81628;BME280;71036;51.102;6.514;2023-09-19T03:11:12;100374.50;;;14.47;82.36
81628;BME280;71036;51.102;6.514;2023-09-19T03:13:39;100371.06;;;14.45;82.46
81628;BME280;71036;51.102;6.514;2023-09-19T03:16:06;100375.91;;;14.41;82.83
81628;BME280;71036;51.102;6.514;2023-09-19T03:18:34;100377.06;;;14.39;82.82
81628;BME280;71036;51.102;6.514;2023-09-19T03:20:59;100385.06;;;14.40;83.27
81628;BME280;71036;51.102;6.514;2023-09-19T03:23:28;100380.63;;;14.39;82.73
81628;BME280;71036;51.102;6.514;2023-09-19T03:25:56;100373.66;;;14.37;83.18
81628;BME280;71036;51.102;6.514;2023-09-19T03:28:22;100380.50;;;14.31;83.73
81628;BME280;71036;51.102;6.514;2023-09-19T03:31:05;100383.06;;;14.33;83.87
81628;BME280;71036;51.102;6.514;2023-09-19T03:33:31;100377.78;;;14.31;83.77
81628;BME280;71036;51.102;6.514;2023-09-19T03:35:58;100380.63;;;14.30;84.16
81628;BME280;71036;51.102;6.514;2023-09-19T03:38:25;100375.00;;;14.23;84.54
81628;BME280;71036;51.102;6.514;2023-09-19T03:40:50;100383.22;;;14.31;83.80
81628;BME280;71036;51.102;6.514;2023-09-19T03:43:15;100380.78;;;14.28;83.48
81628;BME280;71036;51.102;6.514;2023-09-19T03:45:41;100380.78;;;14.28;84.17
81628;BME280;71036;51.102;6.514;2023-09-19T03:48:10;100385.50;;;14.26;84.26
81628;BME280;71036;51.102;6.514;2023-09-19T03:50:35;100373.44;;;14.21;84.01
81628;BME280;71036;51.102;6.514;2023-09-19T03:53:01;100382.38;;;14.21;83.99
81628;BME280;71036;51.102;6.514;2023-09-19T03:55:26;100377.41;;;14.26;82.84
81628;BME280;71036;51.102;6.514;2023-09-19T03:57:52;100377.09;;;14.29;82.61
81628;BME280;71036;51.102;6.514;2023-09-19T04:00:18;100377.41;;;14.26;82.95
81628;BME280;71036;51.102;6.514;2023-09-19T04:02:46;100376.69;;;14.24;83.00
81628;BME280;71036;51.102;6.514;2023-09-19T04:05:11;100371.25;;;14.24;83.14
81628;BME280;71036;51.102;6.514;2023-09-19T04:07:37;100379.25;;;14.26;82.52
81628;BME280;71036;51.102;6.514;2023-09-19T04:10:02;100372.00;;;14.26;83.08
81628;BME280;71036;51.102;6.514;2023-09-19T04:12:28;100372.97;;;14.25;82.92
81628;BME280;71036;51.102;6.514;2023-09-19T04:14:53;100365.72;;;14.26;82.99
81628;BME280;71036;51.102;6.514;2023-09-19T04:17:18;100376.69;;;14.24;83.29
81628;BME280;71036;51.102;6.514;2023-09-19T04:19:44;100363.31;;;14.23;82.94
81628;BME280;71036;51.102;6.514;2023-09-19T04:22:10;100373.28;;;14.22;83.45
81628;BME280;71036;51.102;6.514;2023-09-19T04:24:37;100372.41;;;14.22;83.72
81628;BME280;71036;51.102;6.514;2023-09-19T04:27:03;100375.28;;;14.20;83.76
81628;BME280;71036;51.102;6.514;2023-09-19T04:29:29;100374.72;;;14.17;83.95
81628;BME280;71036;51.102;6.514;2023-09-19T04:31:54;100373.72;;;14.18;84.16
81628;BME280;71036;51.102;6.514;2023-09-19T04:34:19;100380.13;;;14.17;83.67
81628;BME280;71036;51.102;6.514;2023-09-19T04:36:45;100382.69;;;14.18;83.22
81628;BME280;71036;51.102;6.514;2023-09-19T04:39:13;100381.97;;;14.16;84.00
81628;BME280;71036;51.102;6.514;2023-09-19T04:41:55;100372.75;;;14.09;84.02
81628;BME280;71036;51.102;6.514;2023-09-19T04:44:23;100381.59;;;14.11;83.31
81628;BME280;71036;51.102;6.514;2023-09-19T04:46:48;100382.44;;;14.12;82.50
81628;BME280;71036;51.102;6.514;2023-09-19T04:49:14;100384.84;;;14.15;82.32
81628;BME280;71036;51.102;6.514;2023-09-19T04:51:39;100385.84;;;14.14;82.18
81628;BME280;71036;51.102;6.514;2023-09-19T04:54:05;100389.97;;;14.18;81.44
81628;BME280;71036;51.102;6.514;2023-09-19T04:56:31;100391.81;;;14.17;81.59
81628;BME280;71036;51.102;6.514;2023-09-19T04:58:57;100387.00;;;14.11;81.17
81628;BME280;71036;51.102;6.514;2023-09-19T05:01:23;100391.81;;;14.17;80.61
81628;BME280;71036;51.102;6.514;2023-09-19T05:03:49;100395.91;;;14.21;80.46
81628;BME280;71036;51.102;6.514;2023-09-19T05:06:20;100401.31;;;14.21;81.01
81628;BME280;71036;51.102;6.514;2023-09-19T05:08:47;100394.63;;;14.25;81.45
81628;BME280;71036;51.102;6.514;2023-09-19T05:11:16;100402.88;;;14.33;80.43
81628;BME280;71036;51.102;6.514;2023-09-19T05:13:41;100405.69;;;14.41;79.40
81628;BME280;71036;51.102;6.514;2023-09-19T05:16:06;100405.94;;;14.48;78.95
81628;BME280;71036;51.102;6.514;2023-09-19T05:18:35;100416.75;;;14.48;78.72
81628;BME280;71036;51.102;6.514;2023-09-19T05:21:02;100429.72;;;14.44;79.80
81628;BME280;71036;51.102;6.514;2023-09-19T05:23:27;100416.06;;;14.46;79.54
81628;BME280;71036;51.102;6.514;2023-09-19T05:25:53;100422.47;;;14.45;79.74
81628;BME280;71036;51.102;6.514;2023-09-19T05:28:19;100423.31;;;14.45;80.06
81628;BME280;71036;51.102;6.514;2023-09-19T05:30:45;100430.75;;;14.43;79.87
81628;BME280;71036;51.102;6.514;2023-09-19T05:33:11;100428.75;;;14.45;79.49
81628;BME280;71036;51.102;6.514;2023-09-19T05:35:37;100447.25;;;14.50;80.01
81628;BME280;71036;51.102;6.514;2023-09-19T05:38:05;100448.63;;;14.54;79.91
81628;BME280;71036;51.102;6.514;2023-09-19T05:40:34;100444.19;;;14.63;79.29
81628;BME280;71036;51.102;6.514;2023-09-19T05:43:00;100453.47;;;14.60;79.73
81628;BME280;71036;51.102;6.514;2023-09-19T05:45:25;100460.72;;;14.59;79.91
81628;BME280;71036;51.102;6.514;2023-09-19T05:47:51;100455.31;;;14.59;79.87
81628;BME280;71036;51.102;6.514;2023-09-19T05:50:20;100455.88;;;14.63;79.95
81628;BME280;71036;51.102;6.514;2023-09-19T05:52:52;100465.84;;;14.63;80.22
81628;BME280;71036;51.102;6.514;2023-09-19T05:55:17;100468.84;;;14.59;80.63
81628;BME280;71036;51.102;6.514;2023-09-19T05:57:42;100473.09;;;14.62;80.17
81628;BME280;71036;51.102;6.514;2023-09-19T06:00:08;100474.69;;;14.65;80.90
81628;BME280;71036;51.102;6.514;2023-09-19T06:02:36;100474.53;;;14.66;81.19
81628;BME280;71036;51.102;6.514;2023-09-19T06:05:01;100482.34;;;14.69;80.41
81628;BME280;71036;51.102;6.514;2023-09-19T06:07:27;100480.34;;;14.71;80.77
81628;BME280;71036;51.102;6.514;2023-09-19T06:10:01;100478.94;;;14.67;81.27
81628;BME280;71036;51.102;6.514;2023-09-19T06:12:26;100491.91;;;14.64;80.71
81628;BME280;71036;51.102;6.514;2023-09-19T06:14:51;100479.53;;;14.61;81.32
81628;BME280;71036;51.102;6.514;2023-09-19T06:17:17;100476.97;;;14.59;81.23
81628;BME280;71036;51.102;6.514;2023-09-19T06:19:44;100479.53;;;14.61;81.62
81628;BME280;71036;51.102;6.514;2023-09-19T06:22:15;100480.78;;;14.67;81.28
81628;BME280;71036;51.102;6.514;2023-09-19T06:24:43;100485.91;;;14.70;80.85
81628;BME280;71036;51.102;6.514;2023-09-19T06:27:08;100478.78;;;14.69;80.94
81628;BME280;71036;51.102;6.514;2023-09-19T06:29:34;100483.19;;;14.70;81.58
81628;BME280;71036;51.102;6.514;2023-09-19T06:31:59;100484.50;;;14.66;81.29
81628;BME280;71036;51.102;6.514;2023-09-19T06:34:24;100478.66;;;14.70;81.77
81628;BME280;71036;51.102;6.514;2023-09-19T06:36:51;100481.75;;;14.75;81.04
81628;BME280;71036;51.102;6.514;2023-09-19T06:39:16;100483.59;;;14.75;80.40
81628;BME280;71036;51.102;6.514;2023-09-19T06:41:42;100488.41;;;14.81;80.84
81628;BME280;71036;51.102;6.514;2023-09-19T06:44:07;100483.56;;;14.84;80.84
81628;BME280;71036;51.102;6.514;2023-09-19T06:46:33;100481.41;;;14.88;80.32
81628;BME280;71036;51.102;6.514;2023-09-19T06:49:01;100475.13;;;14.87;80.55
81628;BME280;71036;51.102;6.514;2023-09-19T06:51:32;100483.66;;;14.92;80.61
81628;BME280;71036;51.102;6.514;2023-09-19T06:53:59;100486.22;;;14.94;80.43
81628;BME280;71036;51.102;6.514;2023-09-19T06:56:25;100480.03;;;15.01;80.43
81628;BME280;71036;51.102;6.514;2023-09-19T06:58:50;100482.91;;;15.00;80.36
81628;BME280;71036;51.102;6.514;2023-09-19T07:01:16;100469.69;;;14.97;80.17
81628;BME280;71036;51.102;6.514;2023-09-19T07:03:43;100484.00;;;15.07;80.42
81628;BME280;71036;51.102;6.514;2023-09-19T07:06:10;100487.41;;;15.09;79.92
81628;BME280;71036;51.102;6.514;2023-09-19T07:08:36;100488.13;;;15.11;79.82
81628;BME280;71036;51.102;6.514;2023-09-19T07:11:01;100490.84;;;15.11;79.78
81628;BME280;71036;51.102;6.514;2023-09-19T07:13:26;100496.63;;;15.16;79.64
81628;BME280;71036;51.102;6.514;2023-09-19T07:15:51;100495.25;;;15.30;79.98
81628;BME280;71036;51.102;6.514;2023-09-19T07:18:17;100504.13;;;15.32;79.73
81628;BME280;71036;51.102;6.514;2023-09-19T07:20:44;100505.50;;;15.36;79.32
81628;BME280;71036;51.102;6.514;2023-09-19T07:23:19;100502.66;;;15.37;78.80
81628;BME280;71036;51.102;6.514;2023-09-19T07:25:47;100514.56;;;15.44;78.83
81628;BME280;71036;51.102;6.514;2023-09-19T07:28:14;100512.03;;;15.43;78.99
81628;BME280;71036;51.102;6.514;2023-09-19T07:30:39;100512.75;;;15.62;78.27
81628;BME280;71036;51.102;6.514;2023-09-19T07:33:07;100518.41;;;15.69;78.29
81628;BME280;71036;51.102;6.514;2023-09-19T07:35:32;100517.72;;;15.85;77.86
81628;BME280;71036;51.102;6.514;2023-09-19T07:37:58;100523.59;;;15.98;77.04
81628;BME280;71036;51.102;6.514;2023-09-19T07:40:26;100531.59;;;15.99;75.96
81628;BME280;71036;51.102;6.514;2023-09-19T07:42:54;100532.75;;;15.97;76.13
81628;BME280;71036;51.102;6.514;2023-09-19T07:45:20;100528.47;;;16.12;76.02
81628;BME280;71036;51.102;6.514;2023-09-19T07:50:11;100528.19;;;16.41;75.34
81628;BME280;71036;51.102;6.514;2023-09-19T07:52:37;100513.81;;;16.74;74.13
81628;BME280;71036;51.102;6.514;2023-09-19T07:55:07;100521.88;;;16.58;73.57
81628;BME280;71036;51.102;6.514;2023-09-19T07:57:36;100519.72;;;16.61;74.51
81628;BME280;71036;51.102;6.514;2023-09-19T08:00:02;100510.34;;;16.90;73.05
81628;BME280;71036;51.102;6.514;2023-09-19T08:02:33;100515.50;;;17.01;72.51
81628;BME280;71036;51.102;6.514;2023-09-19T08:04:59;100535.75;;;16.80;72.72
81628;BME280;71036;51.102;6.514;2023-09-19T08:07:25;100519.28;;;17.08;71.62
81628;BME280;71036;51.102;6.514;2023-09-19T08:09:50;100523.91;;;17.23;71.38
81628;BME280;71036;51.102;6.514;2023-09-19T08:12:16;100518.09;;;17.18;71.54
81628;BME280;71036;51.102;6.514;2023-09-19T08:14:42;100518.75;;;17.12;70.91
81628;BME280;71036;51.102;6.514;2023-09-19T08:17:07;100511.91;;;17.50;71.13
81628;BME280;71036;51.102;6.514;2023-09-19T08:19:33;100517.56;;;17.15;70.70
81628;BME280;71036;51.102;6.514;2023-09-19T08:21:59;100519.63;;;17.21;71.10
81628;BME280;71036;51.102;6.514;2023-09-19T08:24:25;100528.56;;;17.47;70.37
81628;BME280;71036;51.102;6.514;2023-09-19T08:26:54;100523.22;;;17.63;69.35
81628;BME280;71036;51.102;6.514;2023-09-19T08:29:19;100531.41;;;17.87;68.30
81628;BME280;71036;51.102;6.514;2023-09-19T08:31:45;100526.63;;;18.38;67.47
81628;BME280;71036;51.102;6.514;2023-09-19T08:34:10;100533.09;;;18.61;66.39
81628;BME280;71036;51.102;6.514;2023-09-19T08:36:35;100542.28;;;18.44;66.69
81628;BME280;71036;51.102;6.514;2023-09-19T08:39:02;100528.00;;;17.93;67.73
81628;BME280;71036;51.102;6.514;2023-09-19T08:41:27;100539.25;;;18.07;67.21
81628;BME280;71036;51.102;6.514;2023-09-19T08:43:53;100532.56;;;17.77;67.90
81628;BME280;71036;51.102;6.514;2023-09-19T08:46:18;100518.47;;;18.62;65.67
81628;BME280;71036;51.102;6.514;2023-09-19T08:49:04;100545.88;;;18.61;64.65
81628;BME280;71036;51.102;6.514;2023-09-19T08:51:41;100539.56;;;18.36;65.41
81628;BME280;71036;51.102;6.514;2023-09-19T08:54:07;100533.47;;;19.13;63.88
81628;BME280;71036;51.102;6.514;2023-09-19T08:56:33;100530.69;;;19.21;63.59
81628;BME280;71036;51.102;6.514;2023-09-19T08:59:05;100526.78;;;19.63;62.21
81628;BME280;71036;51.102;6.514;2023-09-19T09:01:34;100540.84;;;19.43;60.88
81628;BME280;71036;51.102;6.514;2023-09-19T09:04:02;100539.56;;;19.23;61.12
81628;BME280;71036;51.102;6.514;2023-09-19T09:06:27;100536.53;;;20.02;60.05
81628;BME280;71036;51.102;6.514;2023-09-19T09:08:57;100534.69;;;19.80;59.64
81628;BME280;71036;51.102;6.514;2023-09-19T09:11:23;100535.00;;;20.31;58.40
81628;BME280;71036;51.102;6.514;2023-09-19T09:13:50;100537.47;;;20.55;57.39
81628;BME280;71036;51.102;6.514;2023-09-19T09:16:16;100521.88;;;20.49;57.89
81628;BME280;71036;51.102;6.514;2023-09-19T09:18:44;100538.47;;;21.06;55.74
81628;BME280;71036;51.102;6.514;2023-09-19T09:21:10;100527.91;;;20.88;56.46
81628;BME280;71036;51.102;6.514;2023-09-19T09:23:36;100522.28;;;20.75;56.34
81628;BME280;71036;51.102;6.514;2023-09-19T09:26:01;100528.31;;;20.10;58.81
81628;BME280;71036;51.102;6.514;2023-09-19T09:28:33;100533.03;;;19.71;59.60
81628;BME280;71036;51.102;6.514;2023-09-19T09:31:00;100529.56;;;19.77;60.03
81628;BME280;71036;51.102;6.514;2023-09-19T09:33:28;100532.06;;;19.87;59.12
81628;BME280;71036;51.102;6.514;2023-09-19T09:36:01;100526.97;;;20.66;56.44
81628;BME280;71036;51.102;6.514;2023-09-19T09:38:29;100528.66;;;20.97;55.65
81628;BME280;71036;51.102;6.514;2023-09-19T09:40:58;100517.44;;;21.36;56.12
81628;BME280;71036;51.102;6.514;2023-09-19T09:43:36;100518.78;;;20.96;55.06
81628;BME280;71036;51.102;6.514;2023-09-19T09:48:57;100525.38;;;20.35;56.91
81628;BME280;71036;51.102;6.514;2023-09-19T09:51:58;100526.28;;;20.64;57.13
81628;BME280;71036;51.102;6.514;2023-09-19T09:54:25;100524.63;;;20.78;57.50
81628;BME280;71036;51.102;6.514;2023-09-19T09:57:08;100526.63;;;19.87;57.86
81628;BME280;71036;51.102;6.514;2023-09-19T09:59:50;100526.69;;;20.91;55.90
81628;BME280;71036;51.102;6.514;2023-09-19T10:02:24;100529.16;;;21.15;55.31
81628;BME280;71036;51.102;6.514;2023-09-19T10:04:54;100528.19;;;20.04;57.87
81628;BME280;71036;51.102;6.514;2023-09-19T10:07:40;100523.81;;;20.55;57.60
81628;BME280;71036;51.102;6.514;2023-09-19T10:10:08;100523.38;;;20.29;58.48
81628;BME280;71036;51.102;6.514;2023-09-19T10:12:55;100517.13;;;19.97;59.41
81628;BME280;71036;51.102;6.514;2023-09-19T10:15:31;100519.75;;;19.91;59.71
81628;BME280;71036;51.102;6.514;2023-09-19T10:17:57;100520.72;;;19.44;60.27
81628;BME280;71036;51.102;6.514;2023-09-19T10:20:28;100516.38;;;19.27;61.36
81628;BME280;71036;51.102;6.514;2023-09-19T10:23:08;100507.97;;;18.98;61.77
81628;BME280;71036;51.102;6.514;2023-09-19T10:25:37;100500.66;;;19.29;60.94
81628;BME280;71036;51.102;6.514;2023-09-19T10:28:05;100501.16;;;18.94;61.45
81628;BME280;71036;51.102;6.514;2023-09-19T10:30:37;100497.88;;;19.07;61.18
81628;BME280;71036;51.102;6.514;2023-09-19T10:33:04;100501.47;;;19.46;60.10
81628;BME280;71036;51.102;6.514;2023-09-19T10:35:32;100494.88;;;18.85;62.34
81628;BME280;71036;51.102;6.514;2023-09-19T10:38:06;100503.94;;;19.25;61.52
81628;BME280;71036;51.102;6.514;2023-09-19T10:40:33;100508.19;;;19.58;60.38
81628;BME280;71036;51.102;6.514;2023-09-19T10:43:02;100506.72;;;19.78;59.36
81628;BME280;71036;51.102;6.514;2023-09-19T10:45:33;100499.91;;;19.74;57.82
81628;BME280;71036;51.102;6.514;2023-09-19T10:47:59;100507.75;;;19.46;58.88
81628;BME280;71036;51.102;6.514;2023-09-19T10:50:27;100516.16;;;19.90;58.06
81628;BME280;71036;51.102;6.514;2023-09-19T10:52:59;100502.94;;;19.56;58.33
81628;BME280;71036;51.102;6.514;2023-09-19T10:55:30;100502.19;;;20.08;57.34
81628;BME280;71036;51.102;6.514;2023-09-19T10:57:56;100499.06;;;20.56;57.08
81628;BME280;71036;51.102;6.514;2023-09-19T11:00:23;100501.06;;;20.02;56.88
81628;BME280;71036;51.102;6.514;2023-09-19T11:05:39;100502.81;;;20.70;54.82
81628;BME280;71036;51.102;6.514;2023-09-19T11:08:06;100506.63;;;20.69;55.58
81628;BME280;71036;51.102;6.514;2023-09-19T11:10:51;100515.63;;;20.69;54.33
81628;BME280;71036;51.102;6.514;2023-09-19T11:13:24;100516.97;;;20.59;53.91
81628;BME280;71036;51.102;6.514;2023-09-19T11:26:43;100524.00;;;22.62;49.07
81628;BME280;71036;51.102;6.514;2023-09-19T11:29:25;100516.34;;;21.30;50.71
81628;BME280;71036;51.102;6.514;2023-09-19T11:31:52;100511.13;;;21.35;50.53
81628;BME280;71036;51.102;6.514;2023-09-19T11:37:59;100508.44;;;21.92;49.46
81628;BME280;71036;51.102;6.514;2023-09-19T11:40:06;100509.44;;;21.70;48.66
81628;BME280;71036;51.102;6.514;2023-09-19T11:48:15;100505.00;;;22.54;47.52
81628;BME280;71036;51.102;6.514;2023-09-19T11:50:43;100500.47;;;22.18;48.38
81628;BME280;71036;51.102;6.514;2023-09-19T11:53:12;100502.22;;;22.05;49.21
81628;BME280;71036;51.102;6.514;2023-09-19T11:55:39;100492.94;;;22.55;49.16
81628;BME280;71036;51.102;6.514;2023-09-19T11:58:07;100489.50;;;22.67;48.00
81628;BME280;71036;51.102;6.514;2023-09-19T12:00:35;100491.84;;;22.43;48.15
81628;BME280;71036;51.102;6.514;2023-09-19T12:03:08;100485.91;;;23.01;45.90
81628;BME280;71036;51.102;6.514;2023-09-19T12:05:35;100487.59;;;21.76;47.94
81628;BME280;71036;51.102;6.514;2023-09-19T12:08:02;100478.63;;;22.25;47.21
81628;BME280;71036;51.102;6.514;2023-09-19T12:10:28;100491.88;;;22.21;47.34
81628;BME280;71036;51.102;6.514;2023-09-19T12:12:53;100480.47;;;21.97;47.89
81628;BME280;71036;51.102;6.514;2023-09-19T12:15:25;100495.91;;;22.53;46.55
81628;BME280;71036;51.102;6.514;2023-09-19T12:18:00;100480.69;;;22.23;47.61
81628;BME280;71036;51.102;6.514;2023-09-19T12:20:45;100479.63;;;22.45;47.14
81628;BME280;71036;51.102;6.514;2023-09-19T12:23:15;100494.34;;;22.44;46.60
81628;BME280;71036;51.102;6.514;2023-09-19T12:25:44;100489.09;;;21.79;47.25
81628;BME280;71036;51.102;6.514;2023-09-19T12:28:13;100470.28;;;21.91;47.18
81628;BME280;71036;51.102;6.514;2023-09-19T12:30:38;100463.53;;;22.36;47.19
81628;BME280;71036;51.102;6.514;2023-09-19T12:33:23;100473.97;;;22.25;47.65
81628;BME280;71036;51.102;6.514;2023-09-19T12:35:52;100456.66;;;21.97;46.90
81628;BME280;71036;51.102;6.514;2023-09-19T12:38:27;100454.06;;;21.32;47.79
81628;BME280;71036;51.102;6.514;2023-09-19T12:40:55;100439.22;;;21.41;48.41
81628;BME280;71036;51.102;6.514;2023-09-19T12:43:22;100443.84;;;21.62;48.51
81628;BME280;71036;51.102;6.514;2023-09-19T12:45:48;100445.66;;;21.34;48.24
81628;BME280;71036;51.102;6.514;2023-09-19T12:48:24;100448.09;;;21.86;48.50
81628;BME280;71036;51.102;6.514;2023-09-19T12:51:04;100446.47;;;22.12;47.91
81628;BME280;71036;51.102;6.514;2023-09-19T12:53:34;100440.81;;;21.71;48.76
81628;BME280;71036;51.102;6.514;2023-09-19T12:56:03;100437.78;;;21.45;50.57
81628;BME280;71036;51.102;6.514;2023-09-19T12:58:31;100447.38;;;21.20;50.03
81628;BME280;71036;51.102;6.514;2023-09-19T13:00:57;100439.28;;;21.12;50.98
81628;BME280;71036;51.102;6.514;2023-09-19T13:05:54;100445.97;;;21.24;49.42
81628;BME280;71036;51.102;6.514;2023-09-19T13:08:34;100438.06;;;21.00;52.09
81628;BME280;71036;51.102;6.514;2023-09-19T13:11:10;100440.72;;;20.79;50.78
81628;BME280;71036;51.102;6.514;2023-09-19T13:17:05;100442.75;;;21.06;50.22
81628;BME280;71036;51.102;6.514;2023-09-19T13:19:47;100437.28;;;21.06;52.65
81628;BME280;71036;51.102;6.514;2023-09-19T13:25:06;100446.00;;;20.65;52.04
81628;BME280;71036;51.102;6.514;2023-09-19T13:27:32;100450.91;;;20.55;52.71
81628;BME280;71036;51.102;6.514;2023-09-19T13:29:58;100449.22;;;20.54;53.30
81628;BME280;71036;51.102;6.514;2023-09-19T13:32:23;100450.03;;;20.55;52.53
81628;BME280;71036;51.102;6.514;2023-09-19T13:34:49;100452.00;;;20.32;52.43
81628;BME280;71036;51.102;6.514;2023-09-19T13:37:14;100441.00;;;20.25;52.83
81628;BME280;71036;51.102;6.514;2023-09-19T13:39:41;100460.34;;;20.16;53.53
81628;BME280;71036;51.102;6.514;2023-09-19T13:42:12;100440.94;;;20.10;54.59